createdAt,value
2019-05-06T00:00:34.619Z,100826.51
2019-05-06T00:01:39.296Z,100818.23
2019-05-06T00:02:43.733Z,100824.33
2019-05-06T00:03:48.540Z,100823.87
2019-05-06T00:04:54.208Z,100825.20
2019-05-06T00:05:58.807Z,100821.75
2019-05-06T00:07:04.312Z,100829.58
2019-05-06T00:08:08.812Z,100821.36
2019-05-06T00:09:14.788Z,100828.30
2019-05-06T00:10:34.324Z,100824.81
2019-05-06T00:11:39.044Z,100826.15
2019-05-06T00:12:44.475Z,100827.00
2019-05-06T00:13:48.993Z,100828.30
2019-05-06T00:14:54.175Z,100820.02
2019-05-06T00:15:58.966Z,100824.81
2019-05-06T00:17:03.967Z,100825.70
2019-05-06T00:18:08.576Z,100828.73
2019-05-06T00:19:13.939Z,100820.91
2019-05-06T00:20:19.204Z,100823.94
2019-05-06T00:21:24.384Z,100823.48
2019-05-06T00:22:29.317Z,100826.97
2019-05-06T00:23:38.422Z,100819.53
2019-05-06T00:24:44.631Z,100829.58
2019-05-06T00:25:56.657Z,100823.45
2019-05-06T00:27:04.749Z,100826.48
2019-05-06T00:28:26.581Z,100822.11
2019-05-06T00:29:31.541Z,100822.53
2019-05-06T00:30:36.260Z,100821.23
2019-05-06T00:31:40.763Z,100820.31
2019-05-06T00:32:45.206Z,100821.20
2019-05-06T00:33:49.642Z,100818.59
2019-05-06T00:34:54.630Z,100820.77
2019-05-06T00:36:00.560Z,100828.13
2019-05-06T00:37:05.183Z,100819.85
2019-05-06T00:38:09.617Z,100818.09
2019-05-06T00:39:18.791Z,100824.19
2019-05-06T00:40:27.729Z,100821.58
2019-05-06T00:41:36.323Z,100826.33
2019-05-06T00:42:41.372Z,100823.69
2019-05-06T00:43:45.946Z,100824.57
2019-05-06T00:44:50.394Z,100827.17
2019-05-06T00:45:55.179Z,100822.81
2019-05-06T00:46:59.622Z,100829.78
2019-05-06T00:48:04.686Z,100830.24
2019-05-06T00:49:09.140Z,100830.24
2019-05-06T00:50:14.350Z,100829.78
2019-05-06T00:51:19.068Z,100825.45
2019-05-06T00:52:25.998Z,100821.13
2019-05-06T00:53:34.735Z,100822.88
2019-05-06T00:54:39.200Z,100824.64
2019-05-06T00:55:44.582Z,100823.34
2019-05-06T00:56:49.063Z,100820.31
2019-05-06T00:57:54.452Z,100825.53
2019-05-06T00:58:59.004Z,100823.80
2019-05-06T01:00:04.769Z,100825.59
2019-05-06T01:01:24.083Z,100820.84
2019-05-06T01:02:16.963Z,100826.97
2019-05-06T01:03:23.652Z,100825.66
2019-05-06T01:04:27.588Z,100826.55
2019-05-06T01:05:33.717Z,100828.76
2019-05-06T01:06:38.626Z,100829.67
2019-05-06T01:07:44.095Z,100827.91
2019-05-06T01:08:48.524Z,100822.30
2019-05-06T01:09:54.199Z,100824.48
2019-05-06T01:10:59.131Z,100828.00
2019-05-06T01:12:05.889Z,100828.88
2019-05-06T01:13:24.218Z,100823.23
2019-05-06T01:14:36.330Z,100828.02
2019-05-06T01:15:41.142Z,100824.11
2019-05-06T01:16:45.681Z,100831.08
2019-05-06T01:17:50.089Z,100831.11
2019-05-06T01:18:54.520Z,100833.72
2019-05-06T01:19:59.029Z,100838.08
2019-05-06T01:21:14.592Z,100836.77
2019-05-06T01:22:18.699Z,100842.45
2019-05-06T01:23:23.487Z,100835.08
2019-05-06T01:24:27.938Z,100842.48
2019-05-06T01:25:34.573Z,100840.32
2019-05-06T01:26:40.046Z,100841.23
2019-05-06T01:27:44.563Z,100849.91
2019-05-06T01:28:49.000Z,100842.08
2019-05-06T01:29:54.864Z,100844.69
2019-05-06T01:30:59.467Z,100845.98
2019-05-06T01:32:03.901Z,100844.27
2019-05-06T01:33:08.336Z,100850.36
2019-05-06T01:34:13.773Z,100850.36
2019-05-06T01:35:18.299Z,100849.48
2019-05-06T01:36:24.801Z,100851.23
2019-05-06T01:37:29.056Z,100849.05
2019-05-06T01:38:38.879Z,100855.58
2019-05-06T01:39:50.892Z,100857.31
2019-05-06T01:40:59.783Z,100855.16
2019-05-06T01:42:14.733Z,100856.88
2019-05-06T01:43:20.807Z,100855.58
2019-05-06T01:44:25.771Z,100858.19
2019-05-06T01:45:30.246Z,100856.44
2019-05-06T01:46:34.703Z,100855.55
2019-05-06T01:47:39.139Z,100858.16
2019-05-06T01:48:49.184Z,100856.44
2019-05-06T01:49:53.893Z,100857.73
2019-05-06T01:50:58.603Z,100855.55
2019-05-06T01:52:04.145Z,100857.73
2019-05-06T01:53:09.816Z,100862.47
2019-05-06T01:54:15.503Z,100862.50
2019-05-06T01:55:19.937Z,100857.71
2019-05-06T01:56:24.393Z,100857.68
2019-05-06T01:57:28.824Z,100858.53
2019-05-06T01:58:33.583Z,100858.50
2019-05-06T01:59:38.075Z,100857.17
2019-05-06T02:00:43.726Z,100859.78
2019-05-06T02:01:58.016Z,100854.11
2019-05-06T02:02:54.825Z,100855.81
2019-05-06T02:03:59.575Z,100856.69
2019-05-06T02:05:05.138Z,100859.27
2019-05-06T02:06:09.575Z,100860.54
2019-05-06T02:07:14.557Z,100863.57
2019-05-06T02:08:19.042Z,100857.02
2019-05-06T02:09:24.671Z,100860.02
2019-05-06T02:10:29.562Z,100866.08
2019-05-06T02:11:34.365Z,100859.95
2019-05-06T02:12:39.181Z,100860.79
2019-05-06T02:13:44.430Z,100859.91
2019-05-06T02:14:49.123Z,100865.55
2019-05-06T02:15:54.739Z,100868.54
2019-05-06T02:16:59.304Z,100868.07
2019-05-06T02:18:04.216Z,100868.88
2019-05-06T02:19:09.126Z,100865.39
2019-05-06T02:20:13.922Z,100862.74
2019-05-06T02:21:24.510Z,100861.44
2019-05-06T02:22:48.778Z,100860.55
2019-05-06T02:23:54.850Z,100862.23
2019-05-06T02:25:00.923Z,100862.61
2019-05-06T02:26:05.624Z,100870.38
2019-05-06T02:27:10.081Z,100866.42
2019-05-06T02:28:14.515Z,100868.60
2019-05-06T02:29:24.639Z,100872.00
2019-05-06T02:30:30.807Z,100871.12
2019-05-06T02:31:56.682Z,100866.28
2019-05-06T02:33:04.180Z,100864.13
2019-05-06T02:34:09.195Z,100868.41
2019-05-06T02:35:17.958Z,100867.53
2019-05-06T02:36:40.274Z,100871.01
2019-05-06T02:37:46.840Z,100864.88
2019-05-06T02:38:54.854Z,100869.56
2019-05-06T02:39:57.433Z,100865.19
2019-05-06T02:41:03.456Z,100866.48
2019-05-06T02:42:08.281Z,100863.88
2019-05-06T02:43:13.688Z,100860.80
2019-05-06T02:44:18.136Z,100868.98
2019-05-06T02:45:23.903Z,100864.66
2019-05-06T02:46:28.749Z,100858.51
2019-05-06T02:47:47.306Z,100861.57
2019-05-06T02:48:55.813Z,100868.49
2019-05-06T02:50:04.484Z,100862.78
2019-05-06T02:51:09.665Z,100870.57
2019-05-06T02:52:14.464Z,100869.64
2019-05-06T02:53:23.447Z,100868.73
2019-05-06T02:54:26.704Z,100872.65
2019-05-06T02:55:33.364Z,100869.14
2019-05-06T02:56:37.566Z,100870.86
2019-05-06T02:57:43.995Z,100871.22
2019-05-06T02:58:48.295Z,100871.63
2019-05-06T02:59:55.229Z,100870.74
2019-05-06T03:00:59.186Z,100873.23
2019-05-06T03:02:03.818Z,100871.93
2019-05-06T03:03:09.296Z,100876.28
2019-05-06T03:04:13.746Z,100872.81
2019-05-06T03:05:18.171Z,100876.24
2019-05-06T03:06:23.836Z,100869.27
2019-05-06T03:07:28.749Z,100877.94
2019-05-06T03:08:33.694Z,100874.45
2019-05-06T03:09:38.123Z,100876.58
2019-05-06T03:10:44.351Z,100876.16
2019-05-06T03:11:48.770Z,100878.28
2019-05-06T03:12:53.930Z,100876.97
2019-05-06T03:13:58.878Z,100875.16
2019-05-06T03:15:03.891Z,100880.32
2019-05-06T03:16:08.402Z,100879.44
2019-05-06T03:17:13.961Z,100875.05
2019-05-06T03:18:19.270Z,100878.03
2019-05-06T03:19:24.353Z,100879.33
2019-05-06T03:20:59.939Z,100878.00
2019-05-06T03:22:24.051Z,100878.41
2019-05-06T03:23:35.442Z,100881.02
2019-05-06T03:24:43.635Z,100880.95
2019-05-06T03:25:47.850Z,100880.05
2019-05-06T03:26:56.943Z,100874.80
2019-05-06T03:27:59.708Z,100869.17
2019-05-06T03:29:04.218Z,100876.56
2019-05-06T03:30:09.576Z,100873.95
2019-05-06T03:31:16.560Z,100878.22
2019-05-06T03:32:24.629Z,100879.52
2019-05-06T03:33:46.869Z,100880.38
2019-05-06T03:34:52.473Z,100877.80
2019-05-06T03:35:56.006Z,100875.19
2019-05-06T03:36:48.591Z,100874.30
2019-05-06T03:37:53.306Z,100881.20
2019-05-06T03:38:57.505Z,100879.83
2019-05-06T03:40:02.941Z,100875.99
2019-05-06T03:41:07.711Z,100881.63
2019-05-06T03:42:15.905Z,100884.20
2019-05-06T03:43:18.347Z,100878.19
2019-05-06T03:44:23.914Z,100882.52
2019-05-06T03:45:33.540Z,100885.98
2019-05-06T03:46:55.134Z,100880.81
2019-05-06T03:48:06.046Z,100887.77
2019-05-06T03:49:13.474Z,100883.81
2019-05-06T03:50:18.131Z,100885.58
2019-05-06T03:51:23.346Z,100892.89
2019-05-06T03:52:30.025Z,100887.69
2019-05-06T03:53:36.201Z,100891.14
2019-05-06T03:54:45.112Z,100888.58
2019-05-06T03:55:50.311Z,100888.58
2019-05-06T03:56:56.386Z,100886.88
2019-05-06T03:58:03.794Z,100879.37
2019-05-06T03:59:08.967Z,100888.13
2019-05-06T04:00:16.035Z,100893.78
2019-05-06T04:01:23.995Z,100885.94
2019-05-06T04:02:29.088Z,100889.06
2019-05-06T04:03:43.959Z,100892.51
2019-05-06T04:04:40.190Z,100889.06
2019-05-06T04:05:44.702Z,100892.10
2019-05-06T04:06:49.579Z,100889.97
2019-05-06T04:07:54.463Z,100889.95
2019-05-06T04:08:59.032Z,100894.69
2019-05-06T04:10:05.018Z,100892.98
2019-05-06T04:11:13.572Z,100892.62
2019-05-06T04:12:19.708Z,100895.23
2019-05-06T04:13:24.435Z,100897.86
2019-05-06T04:14:32.974Z,100893.95
2019-05-06T04:15:55.523Z,100891.81
2019-05-06T04:17:03.246Z,100891.36
2019-05-06T04:18:12.598Z,100892.71
2019-05-06T04:19:18.708Z,100889.30
2019-05-06T04:20:27.554Z,100893.69
2019-05-06T04:21:45.890Z,100895.38
2019-05-06T04:22:53.276Z,100890.73
2019-05-06T04:24:17.372Z,100896.42
2019-05-06T04:25:43.494Z,100897.72
2019-05-06T04:26:53.385Z,100899.09
2019-05-06T04:27:59.287Z,100896.02
2019-05-06T04:29:04.237Z,100893.89
2019-05-06T04:30:09.007Z,100896.97
2019-05-06T04:31:13.728Z,100902.17
2019-05-06T04:32:19.267Z,100902.65
2019-05-06T04:33:24.226Z,100907.44
2019-05-06T04:34:29.196Z,100901.76
2019-05-06T04:35:34.042Z,100907.91
2019-05-06T04:36:39.032Z,100908.05
2019-05-06T04:37:43.748Z,100908.59
2019-05-06T04:38:48.247Z,100917.83
2019-05-06T04:39:53.498Z,100914.81
2019-05-06T04:40:58.457Z,100918.13
2019-05-06T04:42:03.771Z,100920.38
2019-05-06T04:43:08.371Z,100921.73
2019-05-06T04:44:13.809Z,100917.05
2019-05-06T04:45:18.651Z,100918.41
2019-05-06T04:46:23.740Z,100917.59
2019-05-06T04:47:28.377Z,100916.44
2019-05-06T04:48:33.200Z,100919.03
2019-05-06T04:49:37.800Z,100916.80
2019-05-06T04:50:44.348Z,100924.91
2019-05-06T04:51:48.811Z,100921.16
2019-05-06T04:53:04.620Z,100918.59
2019-05-06T04:54:09.456Z,100925.65
2019-05-06T04:55:14.368Z,100925.59
2019-05-06T04:56:19.837Z,100929.07
2019-05-06T04:57:24.275Z,100925.11
2019-05-06T04:58:28.711Z,100926.48
2019-05-06T04:59:33.921Z,100925.58
2019-05-06T05:00:39.119Z,100925.69
2019-05-06T05:01:45.602Z,100923.15
2019-05-06T05:02:50.362Z,100920.66
2019-05-06T05:03:55.806Z,100920.59
2019-05-06T05:05:03.783Z,100921.91
2019-05-06T05:06:06.576Z,100915.91
2019-05-06T05:07:12.782Z,100922.43
2019-05-06T05:08:17.377Z,100922.06
2019-05-06T05:09:23.036Z,100918.63
2019-05-06T05:10:45.445Z,100920.76
2019-05-06T05:11:53.244Z,100919.50
2019-05-06T05:13:12.950Z,100920.48
2019-05-06T05:14:25.708Z,100921.41
2019-05-06T05:15:35.720Z,100917.92
2019-05-06T05:16:52.841Z,100920.08
2019-05-06T05:18:13.934Z,100919.64
2019-05-06T05:19:19.014Z,100918.39
2019-05-06T05:20:36.443Z,100921.50
2019-05-06T05:21:29.583Z,100923.70
2019-05-06T05:22:34.310Z,100924.11
2019-05-06T05:23:39.053Z,100916.38
2019-05-06T05:24:44.169Z,100917.31
2019-05-06T05:25:48.679Z,100917.38
2019-05-06T05:26:53.611Z,100921.37
2019-05-06T05:27:58.041Z,100920.45
2019-05-06T05:29:02.984Z,100927.05
2019-05-06T05:30:08.383Z,100922.33
2019-05-06T05:31:12.891Z,100917.14
2019-05-06T05:32:17.349Z,100917.53
2019-05-06T05:33:22.509Z,100921.02
2019-05-06T05:34:38.083Z,100917.59
2019-05-06T05:35:33.610Z,100922.00
2019-05-06T05:36:38.113Z,100910.66
2019-05-06T05:37:42.575Z,100916.33
2019-05-06T05:38:47.008Z,100916.75
2019-05-06T05:39:51.982Z,100915.14
2019-05-06T05:40:56.555Z,100919.06
2019-05-06T05:42:03.032Z,100924.61
2019-05-06T05:43:22.798Z,100913.05
2019-05-06T05:44:40.180Z,100922.69
2019-05-06T05:45:44.609Z,100914.06
2019-05-06T05:46:49.045Z,100920.14
2019-05-06T05:47:55.151Z,100915.75
2019-05-06T05:49:02.907Z,100917.55
2019-05-06T05:50:09.288Z,100918.88
2019-05-06T05:51:13.723Z,100916.72
2019-05-06T05:52:18.256Z,100913.72
2019-05-06T05:53:22.681Z,100913.30
2019-05-06T05:54:27.488Z,100911.53
2019-05-06T05:55:33.052Z,100912.41
2019-05-06T05:56:37.544Z,100912.40
2019-05-06T05:57:43.254Z,100914.20
2019-05-06T05:58:47.844Z,100920.34
2019-05-06T05:59:52.864Z,100917.73
2019-05-06T06:00:57.352Z,100918.19
2019-05-06T06:02:03.804Z,100918.20
2019-05-06T06:03:08.295Z,100911.22
2019-05-06T06:04:13.087Z,100913.41
2019-05-06T06:05:18.490Z,100922.13
2019-05-06T06:06:22.922Z,100917.34
2019-05-06T06:07:27.354Z,100920.38
2019-05-06T06:08:32.318Z,100916.01
2019-05-06T06:09:38.600Z,100917.31
2019-05-06T06:10:44.687Z,100919.06
2019-05-06T06:11:53.496Z,100921.23
2019-05-06T06:12:57.943Z,100922.11
2019-05-06T06:14:04.159Z,100918.59
2019-05-06T06:15:12.576Z,100920.33
2019-05-06T06:16:20.887Z,100922.05
2019-05-06T06:17:39.533Z,100924.27
2019-05-06T06:18:54.651Z,100924.69
2019-05-06T06:20:03.757Z,100927.75
2019-05-06T06:21:27.154Z,100918.98
2019-05-06T06:22:26.619Z,100918.61
2019-05-06T06:23:32.952Z,100921.63
2019-05-06T06:24:37.389Z,100923.81
2019-05-06T06:25:43.070Z,100914.16
2019-05-06T06:26:47.860Z,100917.66
2019-05-06T06:27:52.395Z,100917.22
2019-05-06T06:28:57.247Z,100917.23
2019-05-06T06:30:02.461Z,100915.88
2019-05-06T06:31:12.920Z,100918.48
2019-05-06T06:32:19.170Z,100916.23
2019-05-06T06:33:23.903Z,100914.00
2019-05-06T06:34:29.977Z,100913.53
2019-05-06T06:35:36.473Z,100915.61
2019-05-06T06:36:52.588Z,100915.56
2019-05-06T06:38:02.751Z,100913.66
2019-05-06T06:39:15.126Z,100915.11
2019-05-06T06:40:22.260Z,100913.45
2019-05-06T06:41:27.314Z,100917.47
2019-05-06T06:42:33.564Z,100917.48
2019-05-06T06:43:38.131Z,100917.81
2019-05-06T06:44:43.041Z,100916.93
2019-05-06T06:45:47.546Z,100909.52
2019-05-06T06:46:52.578Z,100912.58
2019-05-06T06:47:57.342Z,100912.98
2019-05-06T06:49:03.230Z,100912.99
2019-05-06T06:50:08.180Z,100912.98
2019-05-06T06:51:12.903Z,100909.88
2019-05-06T06:52:17.677Z,100907.08
2019-05-06T06:53:22.133Z,100907.34
2019-05-06T06:54:26.643Z,100907.59
2019-05-06T06:55:31.849Z,100906.39
2019-05-06T06:56:38.119Z,100910.22
2019-05-06T06:57:51.897Z,100908.51
2019-05-06T06:59:02.573Z,100908.02
2019-05-06T07:00:09.215Z,100911.00
2019-05-06T07:01:15.352Z,100909.95
2019-05-06T07:02:22.985Z,100904.70
2019-05-06T07:03:32.614Z,100908.78
2019-05-06T07:04:43.108Z,100908.50
2019-05-06T07:05:49.264Z,100906.20
2019-05-06T07:06:55.618Z,100906.14
2019-05-06T07:08:02.036Z,100912.65
2019-05-06T07:09:07.717Z,100904.20
2019-05-06T07:10:32.419Z,100903.47
2019-05-06T07:11:36.867Z,100904.73
2019-05-06T07:12:42.728Z,100903.36
2019-05-06T07:13:52.385Z,100901.34
2019-05-06T07:15:02.628Z,100905.79
2019-05-06T07:16:08.260Z,100901.95
2019-05-06T07:17:13.366Z,100902.17
2019-05-06T07:18:17.929Z,100908.47
2019-05-06T07:19:30.038Z,100908.47
2019-05-06T07:20:36.487Z,100884.77
2019-05-06T07:21:45.409Z,100908.58
2019-05-06T07:22:49.857Z,100904.48
2019-05-06T07:23:54.321Z,100900.23
2019-05-06T07:24:58.793Z,100898.77
2019-05-06T07:26:03.272Z,100905.69
2019-05-06T07:27:09.389Z,100904.43
2019-05-06T07:28:13.830Z,100906.23
2019-05-06T07:29:23.525Z,100890.98
2019-05-06T07:30:26.398Z,100903.05
2019-05-06T07:31:32.959Z,100899.42
2019-05-06T07:32:36.974Z,100893.11
2019-05-06T07:33:42.869Z,100887.58
2019-05-06T07:34:47.568Z,100897.61
2019-05-06T07:35:53.047Z,100893.78
2019-05-06T07:36:57.682Z,100887.14
2019-05-06T07:38:02.520Z,100892.28
2019-05-06T07:39:08.336Z,100889.49
2019-05-06T07:40:13.073Z,100887.88
2019-05-06T07:41:19.779Z,100890.48
2019-05-06T07:42:28.543Z,100895.77
2019-05-06T07:43:53.216Z,100895.77
2019-05-06T07:45:06.529Z,100902.61
2019-05-06T07:46:18.679Z,100894.64
2019-05-06T07:47:24.757Z,100897.76
2019-05-06T07:48:31.881Z,100898.23
2019-05-06T07:49:35.785Z,100901.63
2019-05-06T07:50:42.393Z,100901.84
2019-05-06T07:51:46.345Z,100893.75
2019-05-06T07:53:09.691Z,100903.95
2019-05-06T07:54:14.123Z,100894.45
2019-05-06T07:55:18.578Z,100894.75
2019-05-06T07:56:23.311Z,100889.56
2019-05-06T07:57:28.830Z,100890.06
2019-05-06T07:58:33.747Z,100888.90
2019-05-06T07:59:38.206Z,100893.13
2019-05-06T08:00:42.677Z,100897.30
2019-05-06T08:01:47.124Z,100901.13
2019-05-06T08:02:52.401Z,100897.84
2019-05-06T08:03:56.895Z,100888.02
2019-05-06T08:05:02.655Z,100886.86
2019-05-06T08:06:07.269Z,100893.61
2019-05-06T08:07:12.615Z,100893.17
2019-05-06T08:08:18.178Z,100890.61
2019-05-06T08:09:23.889Z,100891.14
2019-05-06T08:10:28.419Z,100889.59
2019-05-06T08:11:32.960Z,100877.94
2019-05-06T08:12:37.651Z,100895.86
2019-05-06T08:13:43.514Z,100888.80
2019-05-06T08:14:48.425Z,100885.48
2019-05-06T08:15:53.806Z,100878.30
2019-05-06T08:17:05.637Z,100884.37
2019-05-06T08:18:12.007Z,100884.64
2019-05-06T08:19:16.217Z,100886.43
2019-05-06T08:20:22.258Z,100876.12
2019-05-06T08:21:28.369Z,100877.42
2019-05-06T08:22:49.666Z,100883.06
2019-05-06T08:23:55.068Z,100883.56
2019-05-06T08:24:59.504Z,100884.05
2019-05-06T08:26:12.530Z,100884.42
2019-05-06T08:27:12.322Z,100886.17
2019-05-06T08:28:16.838Z,100884.72
2019-05-06T08:29:22.507Z,100878.25
2019-05-06T08:30:27.185Z,100880.28
2019-05-06T08:31:32.745Z,100887.41
2019-05-06T08:32:37.286Z,100879.17
2019-05-06T08:33:43.182Z,100881.42
2019-05-06T08:34:47.844Z,100878.97
2019-05-06T08:35:53.298Z,100875.87
2019-05-06T08:37:03.420Z,100884.41
2019-05-06T08:38:08.240Z,100882.88
2019-05-06T08:39:13.445Z,100883.58
2019-05-06T08:40:18.024Z,100879.48
2019-05-06T08:41:22.791Z,100882.84
2019-05-06T08:42:27.580Z,100881.53
2019-05-06T08:43:32.666Z,100876.62
2019-05-06T08:44:37.138Z,100881.33
2019-05-06T08:45:42.159Z,100881.16
2019-05-06T08:46:46.919Z,100882.41
2019-05-06T08:47:52.395Z,100878.49
2019-05-06T08:48:56.869Z,100887.42
2019-05-06T08:50:02.943Z,100881.02
2019-05-06T08:51:09.272Z,100878.72
2019-05-06T08:52:16.356Z,100883.39
2019-05-06T08:53:24.176Z,100876.11
2019-05-06T08:54:33.664Z,100879.81
2019-05-06T08:55:41.943Z,100872.44
2019-05-06T08:56:46.319Z,100876.91
2019-05-06T08:57:52.731Z,100867.48
2019-05-06T08:58:57.135Z,100871.30
2019-05-06T09:00:03.488Z,100875.33
2019-05-06T09:01:09.834Z,100859.02
2019-05-06T09:02:14.659Z,100864.95
2019-05-06T09:03:19.094Z,100863.84
2019-05-06T09:04:24.501Z,100875.27
2019-05-06T09:05:28.966Z,100873.07
2019-05-06T09:06:34.475Z,100867.52
2019-05-06T09:07:38.918Z,100865.12
2019-05-06T09:08:43.361Z,100870.63
2019-05-06T09:09:47.786Z,100862.50
2019-05-06T09:10:53.307Z,100865.36
2019-05-06T09:11:57.768Z,100868.44
2019-05-06T09:13:02.203Z,100871.55
2019-05-06T09:14:09.655Z,100866.80
2019-05-06T09:15:12.983Z,100873.39
2019-05-06T09:16:17.489Z,100872.50
2019-05-06T09:17:22.615Z,100869.39
2019-05-06T09:18:27.097Z,100875.53
2019-05-06T09:19:33.168Z,100865.25
2019-05-06T09:20:37.756Z,100868.00
2019-05-06T09:21:46.056Z,100866.02
2019-05-06T09:22:48.629Z,100865.82
2019-05-06T09:23:53.333Z,100869.67
2019-05-06T09:24:57.780Z,100863.51
2019-05-06T09:26:03.784Z,100864.89
2019-05-06T09:27:15.397Z,100867.34
2019-05-06T09:28:24.374Z,100855.49
2019-05-06T09:29:32.553Z,100855.98
2019-05-06T09:30:53.460Z,100853.28
2019-05-06T09:32:01.711Z,100851.56
2019-05-06T09:33:05.700Z,100849.81
2019-05-06T09:34:14.191Z,100855.34
2019-05-06T09:35:18.707Z,100847.48
2019-05-06T09:36:23.145Z,100853.01
2019-05-06T09:37:27.599Z,100856.67
2019-05-06T09:38:32.200Z,100844.49
2019-05-06T09:39:36.642Z,100850.84
2019-05-06T09:40:43.311Z,100855.73
2019-05-06T09:41:48.844Z,100851.34
2019-05-06T09:42:54.268Z,100854.90
2019-05-06T09:43:58.704Z,100859.06
2019-05-06T09:45:03.149Z,100846.59
2019-05-06T09:46:08.939Z,100845.81
2019-05-06T09:47:24.639Z,100842.72
2019-05-06T09:48:32.889Z,100843.36
2019-05-06T09:49:38.483Z,100844.03
2019-05-06T09:50:46.140Z,100843.95
2019-05-06T09:51:52.847Z,100848.09
2019-05-06T09:52:57.053Z,100847.22
2019-05-06T09:54:09.299Z,100843.25
2019-05-06T09:55:24.922Z,100848.30
2019-05-06T09:56:33.646Z,100845.12
2019-05-06T09:57:57.920Z,100843.10
2019-05-06T09:59:02.358Z,100846.58
2019-05-06T10:00:08.007Z,100850.93
2019-05-06T10:01:14.784Z,100848.25
2019-05-06T10:02:19.295Z,100841.03
2019-05-06T10:03:23.826Z,100845.17
2019-05-06T10:04:28.613Z,100841.89
2019-05-06T10:05:33.190Z,100844.17
2019-05-06T10:06:38.197Z,100844.26
2019-05-06T10:07:42.638Z,100841.95
2019-05-06T10:08:47.096Z,100844.80
2019-05-06T10:09:52.620Z,100824.41
2019-05-06T10:10:59.954Z,100831.99
2019-05-06T10:12:03.607Z,100828.00
2019-05-06T10:13:08.482Z,100823.48
2019-05-06T10:14:13.065Z,100822.42
2019-05-06T10:15:18.573Z,100819.23
2019-05-06T10:16:23.168Z,100813.36
2019-05-06T10:17:27.609Z,100814.17
2019-05-06T10:18:32.139Z,100816.91
2019-05-06T10:19:37.153Z,100833.56
2019-05-06T10:20:44.137Z,100822.63
2019-05-06T10:21:48.851Z,100831.66
2019-05-06T10:22:53.281Z,100828.84
2019-05-06T10:23:58.051Z,100826.22
2019-05-06T10:25:03.619Z,100831.00
2019-05-06T10:26:09.477Z,100836.16
2019-05-06T10:27:13.917Z,100834.43
2019-05-06T10:28:26.206Z,100845.47
2019-05-06T10:29:32.649Z,100832.59
2019-05-06T10:30:37.216Z,100828.55
2019-05-06T10:31:58.788Z,100828.67
2019-05-06T10:33:04.960Z,100829.72
2019-05-06T10:34:13.879Z,100827.69
2019-05-06T10:35:22.109Z,100829.39
2019-05-06T10:36:32.539Z,100826.41
2019-05-06T10:37:52.707Z,100827.48
2019-05-06T10:39:02.193Z,100826.64
2019-05-06T10:40:14.153Z,100830.08
2019-05-06T10:41:22.344Z,100838.58
2019-05-06T10:42:36.255Z,100832.84
2019-05-06T10:44:06.354Z,100828.72
2019-05-06T10:45:19.630Z,100817.08
2019-05-06T10:46:24.380Z,100830.60
2019-05-06T10:47:28.817Z,100827.64
2019-05-06T10:48:33.259Z,100826.98
2019-05-06T10:49:37.709Z,100828.25
2019-05-06T10:50:44.760Z,100817.53
2019-05-06T10:51:56.685Z,100816.98
2019-05-06T10:53:14.561Z,100812.81
2019-05-06T10:54:19.022Z,100815.89
2019-05-06T10:55:23.448Z,100819.91
2019-05-06T10:56:31.966Z,100816.28
2019-05-06T10:57:40.310Z,100815.41
2019-05-06T10:58:44.119Z,100809.17
2019-05-06T10:59:48.639Z,100814.00
2019-05-06T11:00:54.781Z,100814.00
2019-05-06T11:02:17.444Z,100806.42
2019-05-06T11:03:23.525Z,100809.38
2019-05-06T11:04:27.987Z,100807.59
2019-05-06T11:05:32.591Z,100810.76
2019-05-06T11:06:37.045Z,100810.95
2019-05-06T11:07:43.090Z,100815.72
2019-05-06T11:08:47.697Z,100808.88
2019-05-06T11:09:53.322Z,100811.65
2019-05-06T11:11:11.141Z,100808.22
2019-05-06T11:12:04.184Z,100799.66
2019-05-06T11:13:08.699Z,100807.98
2019-05-06T11:14:13.145Z,100803.00
2019-05-06T11:15:18.806Z,100802.73
2019-05-06T11:16:23.843Z,100807.53
2019-05-06T11:17:29.721Z,100796.31
2019-05-06T11:18:34.165Z,100800.06
2019-05-06T11:19:38.629Z,100794.56
2019-05-06T11:20:44.017Z,100796.72
2019-05-06T11:21:48.660Z,100794.46
2019-05-06T11:22:53.447Z,100790.88
2019-05-06T11:23:58.225Z,100793.70
2019-05-06T11:25:03.333Z,100785.44
2019-05-06T11:26:08.284Z,100787.70
2019-05-06T11:27:27.490Z,100792.31
2019-05-06T11:28:36.682Z,100799.07
2019-05-06T11:29:43.510Z,100781.19
2019-05-06T11:30:49.742Z,100806.55
2019-05-06T11:32:07.818Z,100800.62
2019-05-06T11:33:22.265Z,100794.52
2019-05-06T11:34:37.000Z,100792.01
2019-05-06T11:35:57.820Z,100795.16
2019-05-06T11:37:20.281Z,100799.60
2019-05-06T11:38:25.867Z,100797.84
2019-05-06T11:39:32.136Z,100796.03
2019-05-06T11:40:36.765Z,100785.38
2019-05-06T11:41:59.587Z,100787.19
2019-05-06T11:42:48.603Z,100780.00
2019-05-06T11:43:53.357Z,100792.78
2019-05-06T11:44:57.799Z,100788.73
2019-05-06T11:46:02.337Z,100784.34
2019-05-06T11:47:06.874Z,100782.87
2019-05-06T11:48:14.353Z,100782.80
2019-05-06T11:49:17.455Z,100784.05
2019-05-06T11:50:22.055Z,100780.67
2019-05-06T11:51:28.524Z,100783.27
2019-05-06T11:52:34.687Z,100777.52
2019-05-06T11:53:39.291Z,100783.83
2019-05-06T11:54:43.730Z,100788.32
2019-05-06T11:55:48.185Z,100785.75
2019-05-06T11:56:58.190Z,100782.36
2019-05-06T11:57:59.077Z,100778.41
2019-05-06T11:59:04.169Z,100784.19
2019-05-06T12:00:12.620Z,100790.83
2019-05-06T12:01:24.623Z,100786.54
2019-05-06T12:02:29.343Z,100778.11
2019-05-06T12:03:33.773Z,100777.81
2019-05-06T12:04:38.211Z,100779.69
2019-05-06T12:05:42.674Z,100781.40
2019-05-06T12:06:47.393Z,100780.40
2019-05-06T12:08:03.068Z,100781.03
2019-05-06T12:08:58.263Z,100775.91
2019-05-06T12:10:02.707Z,100773.53
2019-05-06T12:11:07.471Z,100782.02
2019-05-06T12:12:12.775Z,100773.49
2019-05-06T12:13:17.321Z,100779.66
2019-05-06T12:14:22.651Z,100777.05
2019-05-06T12:15:27.282Z,100780.70
2019-05-06T12:16:33.299Z,100777.34
2019-05-06T12:17:38.032Z,100772.38
2019-05-06T12:18:42.487Z,100778.36
2019-05-06T12:19:46.934Z,100779.06
2019-05-06T12:20:52.781Z,100770.31
2019-05-06T12:21:57.261Z,100770.76
2019-05-06T12:23:04.293Z,100776.42
2019-05-06T12:24:07.840Z,100770.30
2019-05-06T12:25:15.317Z,100772.00
2019-05-06T12:26:18.571Z,100772.05
2019-05-06T12:27:43.085Z,100765.30
2019-05-06T12:28:47.276Z,100769.81
2019-05-06T12:29:52.806Z,100771.70
2019-05-06T12:30:57.724Z,100769.36
2019-05-06T12:32:18.718Z,100775.26
2019-05-06T12:33:32.891Z,100771.58
2019-05-06T12:34:36.877Z,100774.41
2019-05-06T12:35:42.961Z,100771.80
2019-05-06T12:36:49.196Z,100767.50
2019-05-06T12:37:55.277Z,100763.52
2019-05-06T12:39:17.462Z,100773.33
2019-05-06T12:40:20.191Z,100780.08
2019-05-06T12:41:24.641Z,100780.61
2019-05-06T12:42:32.998Z,100774.12